Time;durP1;ratioP1;P1;durP2;ratioP2;P2;SDS_P1;SDS_P2;PMS_P1;PMS_P2;Temp;Humidity;BMP_temperature;BMP_pressure;BME280_temperature;BME280_humidity;BME280_pressure;Samples;Min_cycle;Max_cycle;Signal;HPM_P1;HPM_P2
2023/05/16 00:01:20;;;;;;;4.75;4.15;;;;;;;;;;5117144;28;20363;-64
2023/05/16 00:03:49;;;;;;;4.45;4.15;;;;;;;;;;5098343;28;20098;-64
2023/05/16 00:06:15;;;;;;;4.28;3.92;;;;;;;;;;5098384;28;20023;-64
2023/05/16 00:08:41;;;;;;;4.57;4.15;;;;;;;;;;5116141;28;20106;-63
2023/05/16 00:11:06;;;;;;;4.57;4.28;;;;;;;;;;5098006;28;20542;-64
2023/05/16 00:13:32;;;;;;;4.88;4.38;;;;;;;;;;5116621;28;20027;-64
2023/05/16 00:16:01;;;;;;;5.25;4.78;;;;;;;;;;5116424;28;20106;-63
2023/05/16 00:18:27;;;;;;;4.70;4.25;;;;;;;;;;5116320;28;20039;-63
2023/05/16 00:20:54;;;;;;;4.80;4.43;;;;;;;;;;5116072;28;20368;-64
2023/05/16 00:23:20;;;;;;;4.88;4.35;;;;;;;;;;5115777;28;20043;-64
2023/05/16 00:25:46;;;;;;;4.97;4.10;;;;;;;;;;5116742;28;20425;-63
2023/05/16 00:28:11;;;;;;;4.95;4.45;;;;;;;;;;5116276;28;20035;-63
2023/05/16 00:30:36;;;;;;;5.57;4.35;;;;;;;;;;5115808;28;20039;-63
2023/05/16 00:33:02;;;;;;;5.13;4.68;;;;;;;;;;5115985;28;20136;-63
2023/05/16 00:35:28;;;;;;;5.07;4.47;;;;;;;;;;5097453;28;20028;-63
2023/05/16 00:37:53;;;;;;;5.18;4.60;;;;;;;;;;5115794;28;20172;-63
2023/05/16 00:40:20;;;;;;;5.70;5.28;;;;;;;;;;5097838;28;20028;-62
2023/05/16 00:42:45;;;;;;;5.40;5.00;;;;;;;;;;5097985;28;20012;-62
2023/05/16 00:45:11;;;;;;;5.78;5.18;;;;;;;;;;5115779;28;20026;-62
2023/05/16 00:47:36;;;;;;;5.70;5.07;;;;;;;;;;5115578;28;20035;-62
2023/05/16 00:50:02;;;;;;;4.75;4.43;;;;;;;;;;5116002;28;20464;-63
2023/05/16 00:52:29;;;;;;;5.60;5.10;;;;;;;;;;5096701;28;20114;-62
2023/05/16 00:54:55;;;;;;;6.22;5.55;;;;;;;;;;5116095;28;20355;-62
2023/05/16 00:57:21;;;;;;;8.38;6.05;;;;;;;;;;5115504;28;20035;-62
2023/05/16 00:59:46;;;;;;;9.52;8.00;;;;;;;;;;5097217;28;20055;-62
2023/05/16 01:02:12;;;;;;;8.93;7.88;;;;;;;;;;5115532;28;20076;-62
2023/05/16 01:04:44;;;;;;;13.90;8.20;;;;;;;;;;5080518;28;20041;-62
2023/05/16 01:07:09;;;;;;;8.60;7.13;;;;;;;;;;5115593;28;20370;-62
2023/05/16 01:09:37;;;;;;;9.77;7.13;;;;;;;;;;5097099;28;20395;-63
2023/05/16 01:12:19;;;;;;;7.88;6.90;;;;;;;;;;5097118;28;20478;-63
2023/05/16 01:14:51;;;;;;;7.70;6.90;;;;;;;;;;5097100;28;20428;-63
2023/05/16 01:17:42;;;;;;;6.50;5.95;;;;;;;;;;5115153;28;20027;-63
2023/05/16 01:20:28;;;;;;;6.35;5.85;;;;;;;;;;5096657;28;20068;-63
2023/05/16 01:23:16;;;;;;;7.65;6.85;;;;;;;;;;5115244;28;20041;-64
2023/05/16 01:25:47;;;;;;;7.72;6.80;;;;;;;;;;5115142;28;20019;-64
2023/05/16 01:28:15;;;;;;;7.13;6.53;;;;;;;;;;5114707;28;20059;-63
2023/05/16 01:30:41;;;;;;;7.82;7.18;;;;;;;;;;5115034;28;20478;-63
2023/05/16 01:33:07;;;;;;;7.55;6.95;;;;;;;;;;5114954;28;20042;-64
2023/05/16 01:35:35;;;;;;;7.97;7.25;;;;;;;;;;5095987;28;20030;-63
2023/05/16 01:38:11;;;;;;;8.27;7.47;;;;;;;;;;5079070;28;20047;-63
2023/05/16 01:40:54;;;;;;;7.35;6.65;;;;;;;;;;5114513;28;20052;-63
2023/05/16 01:43:32;;;;;;;9.20;6.95;;;;;;;;;;5096350;28;20028;-63
2023/05/16 01:46:01;;;;;;;7.88;7.18;;;;;;;;;;5096507;28;20030;-63
2023/05/16 01:48:30;;;;;;;7.43;6.70;;;;;;;;;;5114549;28;20023;-63
2023/05/16 01:50:56;;;;;;;7.28;6.57;;;;;;;;;;5096106;28;20035;-63
2023/05/16 01:53:25;;;;;;;7.20;6.25;;;;;;;;;;5095944;28;20101;-62
2023/05/16 01:55:51;;;;;;;7.30;6.40;;;;;;;;;;5114684;28;20038;-62
2023/05/16 01:58:19;;;;;;;7.25;6.68;;;;;;;;;;5114426;28;20028;-62
2023/05/16 02:00:45;;;;;;;8.30;7.50;;;;;;;;;;5114457;28;20436;-63
2023/05/16 02:03:10;;;;;;;8.60;7.80;;;;;;;;;;5114332;28;20056;-63
2023/05/16 02:05:37;;;;;;;7.93;7.15;;;;;;;;;;5096063;28;20363;-63
2023/05/16 02:08:02;;;;;;;7.55;6.85;;;;;;;;;;5096569;28;20024;-63
2023/05/16 02:10:28;;;;;;;7.90;7.15;;;;;;;;;;5079414;28;20201;-63
2023/05/16 02:12:53;;;;;;;8.57;7.72;;;;;;;;;;5114021;28;20092;-63
2023/05/16 02:15:19;;;;;;;8.00;7.30;;;;;;;;;;5096096;28;20084;-62
2023/05/16 02:17:44;;;;;;;10.20;6.65;;;;;;;;;;5096395;28;20027;-62
2023/05/16 02:20:10;;;;;;;8.25;7.45;;;;;;;;;;5095986;28;20435;-62
2023/05/16 02:22:38;;;;;;;8.75;7.22;;;;;;;;;;5114116;28;20034;-62
2023/05/16 02:25:04;;;;;;;7.28;6.60;;;;;;;;;;5114357;28;20076;-62
2023/05/16 02:27:29;;;;;;;7.63;6.93;;;;;;;;;;5114277;28;20077;-63
2023/05/16 02:29:54;;;;;;;7.47;6.78;;;;;;;;;;5114439;28;20082;-63
2023/05/16 02:32:20;;;;;;;6.60;6.10;;;;;;;;;;5095994;28;20028;-63
2023/05/16 02:34:46;;;;;;;6.80;6.22;;;;;;;;;;5114281;28;20070;-63
2023/05/16 02:37:12;;;;;;;7.13;6.43;;;;;;;;;;5095695;28;20055;-63
2023/05/16 02:39:37;;;;;;;7.45;6.75;;;;;;;;;;5114329;28;20368;-63
2023/05/16 02:42:10;;;;;;;7.50;6.80;;;;;;;;;;5113913;28;20350;-63
2023/05/16 02:44:35;;;;;;;7.22;6.63;;;;;;;;;;5113920;28;20059;-61
2023/05/16 02:47:01;;;;;;;6.93;6.35;;;;;;;;;;5098379;28;20096;-61
2023/05/16 02:49:26;;;;;;;9.75;7.60;;;;;;;;;;5100128;28;20035;-64
2023/05/16 02:51:53;;;;;;;7.78;6.97;;;;;;;;;;5118088;28;20054;-61
2023/05/16 02:54:18;;;;;;;7.63;6.93;;;;;;;;;;5099578;28;20028;-60
2023/05/16 02:56:43;;;;;;;8.70;7.65;;;;;;;;;;5118046;28;20032;-61
2023/05/16 02:59:10;;;;;;;9.18;7.40;;;;;;;;;;5117745;28;20084;-62
2023/05/16 03:01:35;;;;;;;6.93;6.28;;;;;;;;;;5099235;28;20024;-62
2023/05/16 03:04:00;;;;;;;9.68;6.82;;;;;;;;;;5117698;28;20536;-61
2023/05/16 03:06:26;;;;;;;8.02;6.78;;;;;;;;;;5082259;28;20436;-61
2023/05/16 03:08:51;;;;;;;8.13;6.55;;;;;;;;;;5117723;28;20107;-63
2023/05/16 03:11:20;;;;;;;6.22;5.63;;;;;;;;;;5118092;28;20024;-62
2023/05/16 03:13:45;;;;;;;6.43;5.82;;;;;;;;;;5117597;28;20046;-62
2023/05/16 03:16:11;;;;;;;5.88;5.43;;;;;;;;;;5099704;28;20020;-62
2023/05/16 03:18:36;;;;;;;5.38;4.97;;;;;;;;;;5099416;28;20485;-63
2023/05/16 03:21:02;;;;;;;6.63;5.57;;;;;;;;;;5117381;28;20048;-64
2023/05/16 03:23:27;;;;;;;6.35;5.55;;;;;;;;;;5117680;28;20027;-61
2023/05/16 03:25:55;;;;;;;5.43;4.93;;;;;;;;;;5117690;28;20077;-62
2023/05/16 03:28:20;;;;;;;5.30;4.80;;;;;;;;;;5117384;28;20036;-62
2023/05/16 03:30:45;;;;;;;8.27;5.40;;;;;;;;;;5099117;28;20107;-61
2023/05/16 03:33:11;;;;;;;6.25;5.15;;;;;;;;;;5098975;28;20023;-61
2023/05/16 03:35:36;;;;;;;6.55;5.32;;;;;;;;;;5098640;28;20027;-61
2023/05/16 03:38:03;;;;;;;5.88;5.38;;;;;;;;;;5081877;28;20488;-61
2023/05/16 03:40:28;;;;;;;6.13;5.53;;;;;;;;;;5098633;28;20076;-63
2023/05/16 03:42:55;;;;;;;5.80;5.30;;;;;;;;;;5098712;28;20028;-62
2023/05/16 03:45:21;;;;;;;5.03;4.60;;;;;;;;;;5116566;28;20463;-63
2023/05/16 03:47:54;;;;;;;5.50;5.00;;;;;;;;;;5117292;28;20107;-62
2023/05/16 03:50:25;;;;;;;4.93;4.47;;;;;;;;;;5098801;28;20040;-63
2023/05/16 03:52:53;;;;;;;4.72;4.32;;;;;;;;;;5099355;28;20096;-63
2023/05/16 03:55:18;;;;;;;4.75;4.35;;;;;;;;;;5116868;28;20036;-63
2023/05/16 03:57:44;;;;;;;7.05;5.03;;;;;;;;;;5098006;28;20032;-63
2023/05/16 04:00:11;;;;;;;5.43;4.32;;;;;;;;;;5116635;28;20360;-63
2023/05/16 04:02:39;;;;;;;4.60;4.10;;;;;;;;;;5097986;28;20107;-63
2023/05/16 04:05:08;;;;;;;4.50;4.10;;;;;;;;;;5116547;28;20344;-63
2023/05/16 04:07:33;;;;;;;4.78;4.38;;;;;;;;;;5116396;28;20489;-70
2023/05/16 04:09:59;;;;;;;4.15;3.88;;;;;;;;;;5116698;28;20028;-62
2023/05/16 04:12:24;;;;;;;4.63;4.22;;;;;;;;;;5116126;28;20486;-63
2023/05/16 04:14:49;;;;;;;4.35;3.95;;;;;;;;;;5116282;28;20023;-63
2023/05/16 04:17:15;;;;;;;6.55;4.05;;;;;;;;;;5097361;28;20538;-63
2023/05/16 04:19:40;;;;;;;4.22;3.83;;;;;;;;;;5116446;28;20032;-63
2023/05/16 04:22:06;;;;;;;4.80;4.40;;;;;;;;;;5116076;28;20025;-63
2023/05/16 04:24:32;;;;;;;4.47;4.07;;;;;;;;;;5116122;28;20055;-63
2023/05/16 04:26:57;;;;;;;4.47;4.07;;;;;;;;;;5097613;28;20067;-63
2023/05/16 04:29:22;;;;;;;6.45;4.30;;;;;;;;;;5115871;28;20035;-63
2023/05/16 04:31:48;;;;;;;5.45;4.68;;;;;;;;;;5115498;28;20080;-63
2023/05/16 04:34:14;;;;;;;5.38;4.28;;;;;;;;;;5115765;28;20027;-63
2023/05/16 04:36:40;;;;;;;4.95;4.55;;;;;;;;;;5115193;28;20111;-62
2023/05/16 04:39:06;;;;;;;5.47;4.90;;;;;;;;;;5115661;28;20118;-62
2023/05/16 04:41:34;;;;;;;5.25;4.85;;;;;;;;;;5116264;28;20039;-62
2023/05/16 04:44:02;;;;;;;6.82;5.20;;;;;;;;;;5096682;28;20034;-62
2023/05/16 04:46:27;;;;;;;5.07;4.57;;;;;;;;;;5076015;28;20043;-63
2023/05/16 04:48:53;;;;;;;5.82;4.45;;;;;;;;;;5094917;28;20024;-63
2023/05/16 04:51:18;;;;;;;4.57;4.20;;;;;;;;;;5062758;28;20036;-64
2023/05/16 04:53:43;;;;;;;4.32;3.92;;;;;;;;;;5115420;28;20035;-63
2023/05/16 04:56:09;;;;;;;3.75;3.45;;;;;;;;;;5115459;28;20065;-64
2023/05/16 04:58:34;;;;;;;3.60;3.25;;;;;;;;;;5097175;28;20071;-64
2023/05/16 05:01:00;;;;;;;3.40;3.10;;;;;;;;;;5115407;28;20034;-64
2023/05/16 05:03:25;;;;;;;5.53;3.70;;;;;;;;;;5114428;28;20138;-64
2023/05/16 05:05:50;;;;;;;3.70;3.13;;;;;;;;;;5114415;28;20193;-64
2023/05/16 05:08:17;;;;;;;4.03;3.08;;;;;;;;;;5113298;28;20027;-63
2023/05/16 05:10:42;;;;;;;4.22;3.63;;;;;;;;;;5113530;28;20028;-63
2023/05/16 05:13:10;;;;;;;4.20;3.80;;;;;;;;;;5113754;28;20034;-61
2023/05/16 05:15:35;;;;;;;3.65;3.13;;;;;;;;;;5113618;28;20031;-60
2023/05/16 05:18:06;;;;;;;3.95;3.08;;;;;;;;;;5114665;28;20381;-60
2023/05/16 05:20:31;;;;;;;3.72;3.53;;;;;;;;;;5114874;28;20051;-60
2023/05/16 05:23:02;;;;;;;4.10;3.35;;;;;;;;;;5096232;28;20497;-60
2023/05/16 05:25:27;;;;;;;3.80;3.60;;;;;;;;;;5096594;28;20032;-61
2023/05/16 05:27:53;;;;;;;3.53;3.22;;;;;;;;;;5096321;28;20035;-62
2023/05/16 05:30:18;;;;;;;3.80;3.45;;;;;;;;;;5114734;28;20126;-62
2023/05/16 05:32:43;;;;;;;4.03;3.38;;;;;;;;;;5114646;28;20044;-62
2023/05/16 05:35:09;;;;;;;3.75;3.45;;;;;;;;;;5096317;28;20023;-62
2023/05/16 05:37:34;;;;;;;4.13;3.72;;;;;;;;;;5113667;28;20035;-64
2023/05/16 05:40:00;;;;;;;4.28;3.80;;;;;;;;;;5113756;28;20482;-63
2023/05/16 05:42:25;;;;;;;4.95;4.47;;;;;;;;;;5113728;28;20020;-63
2023/05/16 05:44:51;;;;;;;4.40;4.00;;;;;;;;;;5113422;28;20028;-62
2023/05/16 05:47:16;;;;;;;5.18;4.35;;;;;;;;;;5114871;28;20352;-62
2023/05/16 05:49:42;;;;;;;5.50;4.25;;;;;;;;;;5114479;28;20046;-62
2023/05/16 05:52:07;;;;;;;4.78;4.40;;;;;;;;;;5114280;28;20391;-62
2023/05/16 05:54:33;;;;;;;6.47;4.63;;;;;;;;;;5113660;28;20116;-62
2023/05/16 05:56:59;;;;;;;4.75;4.28;;;;;;;;;;5113761;28;20038;-63
2023/05/16 05:59:24;;;;;;;6.65;5.22;;;;;;;;;;5114756;28;20382;-62
2023/05/16 06:01:51;;;;;;;7.00;5.35;;;;;;;;;;5113385;28;20451;-63
2023/05/16 06:04:19;;;;;;;9.48;4.50;;;;;;;;;;5112805;28;20031;-62
2023/05/16 06:06:45;;;;;;;9.20;4.95;;;;;;;;;;5113361;28;20023;-63
2023/05/16 06:09:14;;;;;;;5.18;4.68;;;;;;;;;;5113615;28;20440;-67
2023/05/16 06:11:40;;;;;;;5.25;4.75;;;;;;;;;;5095078;28;20031;-62
2023/05/16 06:14:06;;;;;;;6.18;4.75;;;;;;;;;;5095555;28;20520;-62
2023/05/16 06:16:31;;;;;;;6.85;4.72;;;;;;;;;;5113835;28;20032;-62
2023/05/16 06:18:56;;;;;;;8.45;5.65;;;;;;;;;;5114067;28;20023;-62
2023/05/16 06:21:22;;;;;;;6.97;5.38;;;;;;;;;;5096059;28;20576;-62
2023/05/16 06:23:47;;;;;;;8.45;5.60;;;;;;;;;;5114460;28;20024;-62
2023/05/16 06:26:12;;;;;;;7.68;5.57;;;;;;;;;;5114059;28;20031;-62
2023/05/16 06:28:38;;;;;;;5.35;4.78;;;;;;;;;;5113957;28;20115;-63
2023/05/16 06:31:03;;;;;;;6.22;5.28;;;;;;;;;;5095588;28;20030;-62
2023/05/16 06:33:30;;;;;;;7.20;5.32;;;;;;;;;;5113799;28;20479;-62
2023/05/16 06:35:55;;;;;;;7.53;4.47;;;;;;;;;;5113810;28;20161;-62
2023/05/16 06:38:20;;;;;;;5.28;4.75;;;;;;;;;;5113544;28;20118;-62
2023/05/16 06:40:46;;;;;;;7.93;5.20;;;;;;;;;;5113870;28;20114;-62
2023/05/16 06:43:11;;;;;;;8.88;5.03;;;;;;;;;;5095488;28;20030;-62
2023/05/16 06:45:37;;;;;;;5.95;5.43;;;;;;;;;;5113773;28;20023;-63
2023/05/16 06:48:03;;;;;;;6.15;4.95;;;;;;;;;;5095641;28;20077;-62
2023/05/16 06:50:30;;;;;;;4.32;3.90;;;;;;;;;;5096060;28;20055;-63
2023/05/16 06:52:56;;;;;;;5.03;4.35;;;;;;;;;;5113734;28;20016;-62
2023/05/16 06:55:21;;;;;;;5.55;4.20;;;;;;;;;;5113608;28;20053;-62
2023/05/16 06:57:46;;;;;;;5.97;4.45;;;;;;;;;;5113445;28;20390;-62
2023/05/16 07:00:12;;;;;;;5.32;4.80;;;;;;;;;;5113630;28;20055;-63
2023/05/16 07:02:37;;;;;;;3.72;3.42;;;;;;;;;;5113676;28;20030;-64
2023/05/16 07:05:03;;;;;;;4.00;3.53;;;;;;;;;;5113565;28;20117;-64
2023/05/16 07:07:28;;;;;;;4.03;3.63;;;;;;;;;;5113597;28;20035;-64
2023/05/16 07:09:54;;;;;;;3.63;3.33;;;;;;;;;;5113636;28;20031;-64
2023/05/16 07:12:19;;;;;;;4.30;3.35;;;;;;;;;;5095602;28;20424;-64
2023/05/16 07:14:45;;;;;;;3.92;3.63;;;;;;;;;;5113481;28;20038;-64
2023/05/16 07:17:10;;;;;;;4.80;3.65;;;;;;;;;;5113353;28;20023;-64
2023/05/16 07:19:36;;;;;;;5.32;4.50;;;;;;;;;;5095162;28;20126;-64
2023/05/16 07:22:01;;;;;;;4.57;4.18;;;;;;;;;;5113405;28;20019;-64
2023/05/16 07:24:26;;;;;;;4.90;4.32;;;;;;;;;;5113422;28;20028;-64
2023/05/16 07:26:52;;;;;;;4.90;4.03;;;;;;;;;;5113371;28;20039;-64
2023/05/16 07:29:19;;;;;;;4.13;3.72;;;;;;;;;;5113423;28;20019;-64
2023/05/16 07:31:45;;;;;;;4.63;4.10;;;;;;;;;;5113345;28;20075;-64
2023/05/16 07:34:10;;;;;;;3.55;3.35;;;;;;;;;;5097739;28;20027;-64
2023/05/16 07:36:36;;;;;;;3.90;3.60;;;;;;;;;;5116828;28;20061;-65
2023/05/16 07:39:02;;;;;;;4.82;3.95;;;;;;;;;;5098944;28;20478;-64
2023/05/16 07:41:28;;;;;;;4.57;4.18;;;;;;;;;;5116873;28;20031;-64
2023/05/16 07:43:53;;;;;;;4.47;3.78;;;;;;;;;;5116855;28;20012;-64
2023/05/16 07:46:19;;;;;;;4.53;4.13;;;;;;;;;;5116786;28;20042;-64
2023/05/16 07:48:45;;;;;;;3.67;3.47;;;;;;;;;;5117021;28;20474;-64
2023/05/16 07:51:10;;;;;;;4.40;4.00;;;;;;;;;;5116810;28;20077;-64
2023/05/16 07:53:35;;;;;;;3.33;2.90;;;;;;;;;;5116761;28;20028;-64
2023/05/16 07:56:01;;;;;;;4.80;3.85;;;;;;;;;;5098556;28;20489;-64
2023/05/16 07:58:26;;;;;;;4.05;3.72;;;;;;;;;;5116493;28;20031;-64
2023/05/16 08:00:52;;;;;;;4.75;4.30;;;;;;;;;;5116520;28;20036;-64
2023/05/16 08:03:17;;;;;;;4.80;4.15;;;;;;;;;;5116506;28;20160;-64
2023/05/16 08:05:42;;;;;;;7.57;3.85;;;;;;;;;;5098213;28;20111;-64
2023/05/16 08:08:08;;;;;;;3.08;2.88;;;;;;;;;;5102901;23;20053;-63
2023/05/16 08:11:05;;;;;;;3.40;3.20;;;;;;;;;;5126557;22;20538;-63
2023/05/16 08:13:31;;;;;;;4.15;3.63;;;;;;;;;;5033769;28;20064;-64
2023/05/16 08:15:56;;;;;;;4.50;3.90;;;;;;;;;;5035565;28;20025;-64
2023/05/16 08:18:21;;;;;;;5.82;4.18;;;;;;;;;;5035501;28;20026;-64
2023/05/16 08:20:48;;;;;;;3.80;3.53;;;;;;;;;;5035469;28;20478;-64
2023/05/16 08:23:13;;;;;;;3.78;3.40;;;;;;;;;;5018005;28;20013;-64
2023/05/16 08:25:38;;;;;;;3.28;3.03;;;;;;;;;;5035385;28;20484;-64
2023/05/16 08:28:04;;;;;;;3.45;3.15;;;;;;;;;;5017566;28;20461;-64
2023/05/16 08:30:29;;;;;;;4.85;3.97;;;;;;;;;;5035333;28;20022;-64
2023/05/16 08:32:55;;;;;;;4.80;3.72;;;;;;;;;;5017980;28;20025;-64
2023/05/16 08:35:21;;;;;;;3.72;3.42;;;;;;;;;;5035306;28;20033;-64
2023/05/16 08:37:46;;;;;;;4.07;3.63;;;;;;;;;;5035132;28;20112;-64
2023/05/16 08:40:13;;;;;;;4.85;3.70;;;;;;;;;;5017321;28;20029;-64
2023/05/16 08:42:38;;;;;;;5.63;3.50;;;;;;;;;;5035172;28;20018;-64
2023/05/16 08:45:05;;;;;;;4.35;3.95;;;;;;;;;;5034444;28;20044;-64
2023/05/16 08:47:31;;;;;;;4.13;3.83;;;;;;;;;;5035075;28;20033;-64
2023/05/16 08:49:58;;;;;;;4.30;4.00;;;;;;;;;;5017535;28;20037;-64
2023/05/16 08:52:27;;;;;;;4.55;4.15;;;;;;;;;;5034952;28;20444;-64
2023/05/16 08:54:53;;;;;;;3.42;3.22;;;;;;;;;;5034927;28;20038;-64
2023/05/16 08:57:19;;;;;;;40.28;10.10;;;;;;;;;;5000625;28;20043;-64
2023/05/16 08:59:45;;;;;;;32.17;8.55;;;;;;;;;;5017098;28;20536;-64
2023/05/16 09:02:10;;;;;;;106.90;23.52;;;;;;;;;;5034703;28;20104;-64
2023/05/16 09:04:36;;;;;;;20.83;9.82;;;;;;;;;;5034706;28;20029;-64
2023/05/16 09:07:01;;;;;;;3.80;3.50;;;;;;;;;;5034644;28;20013;-64
2023/05/16 09:09:26;;;;;;;4.20;3.88;;;;;;;;;;5034566;28;20120;-64
2023/05/16 09:11:52;;;;;;;222.82;49.75;;;;;;;;;;5043460;28;20056;-64
2023/05/16 09:14:17;;;;;;;100.60;30.58;;;;;;;;;;5036669;28;20036;-64
2023/05/16 09:16:44;;;;;;;4.07;3.80;;;;;;;;;;5054412;28;20037;-64
2023/05/16 09:19:11;;;;;;;3.88;3.50;;;;;;;;;;5019949;28;20044;-62
2023/05/16 09:21:42;;;;;;;4.30;3.85;;;;;;;;;;5054363;28;20036;-64
2023/05/16 09:24:16;;;;;;;4.15;3.67;;;;;;;;;;5054608;28;20040;-64
2023/05/16 09:26:46;;;;;;;3.90;3.65;;;;;;;;;;5035303;28;20036;-64
2023/05/16 09:29:13;;;;;;;4.35;3.92;;;;;;;;;;5054390;28;20032;-64
2023/05/16 09:31:38;;;;;;;4.15;3.75;;;;;;;;;;5036548;28;20095;-64
2023/05/16 09:34:07;;;;;;;3.67;3.38;;;;;;;;;;5054035;28;20392;-64
2023/05/16 09:36:33;;;;;;;5.60;4.10;;;;;;;;;;5036165;28;20032;-64
2023/05/16 09:38:59;;;;;;;5.43;3.70;;;;;;;;;;5053851;28;20522;-64
2023/05/16 09:41:24;;;;;;;3.92;3.03;;;;;;;;;;5054183;28;20437;-64
2023/05/16 09:43:50;;;;;;;3.88;3.42;;;;;;;;;;5053905;28;20100;-64
2023/05/16 09:46:15;;;;;;;3.63;3.22;;;;;;;;;;5053841;28;20489;-64
2023/05/16 09:48:43;;;;;;;3.50;3.20;;;;;;;;;;5053749;28;20083;-64
2023/05/16 09:51:10;;;;;;;3.03;2.83;;;;;;;;;;5053783;28;20085;-64
2023/05/16 09:53:37;;;;;;;3.33;3.03;;;;;;;;;;5053793;28;20388;-64
2023/05/16 09:56:03;;;;;;;3.42;3.15;;;;;;;;;;5052957;28;20032;-64
2023/05/16 09:58:30;;;;;;;3.33;3.13;;;;;;;;;;5053578;28;20469;-64
2023/05/16 10:00:56;;;;;;;3.60;3.25;;;;;;;;;;5053547;28;20032;-64
2023/05/16 10:03:22;;;;;;;5.18;3.10;;;;;;;;;;5053621;28;20020;-64
2023/05/16 10:05:47;;;;;;;3.13;2.55;;;;;;;;;;5035820;28;20025;-64
2023/05/16 10:08:14;;;;;;;6.00;3.50;;;;;;;;;;5053533;28;20491;-64
2023/05/16 10:10:40;;;;;;;4.22;3.15;;;;;;;;;;5035050;28;20492;-64
2023/05/16 10:13:07;;;;;;;3.80;3.47;;;;;;;;;;5053318;28;20056;-64
2023/05/16 10:15:32;;;;;;;21.27;7.40;;;;;;;;;;5053455;28;20111;-64
2023/05/16 10:17:59;;;;;;;3.65;3.40;;;;;;;;;;5035519;28;20148;-64
2023/05/16 10:20:25;;;;;;;10.05;5.15;;;;;;;;;;5053375;28;20028;-64
2023/05/16 10:22:51;;;;;;;3.85;3.60;;;;;;;;;;5053408;28;20052;-64
2023/05/16 10:25:37;;;;;;;6.50;3.63;;;;;;;;;;5035564;28;20107;-64
2023/05/16 10:28:03;;;;;;;5.30;3.88;;;;;;;;;;5053394;28;20037;-64
2023/05/16 10:30:29;;;;;;;3.83;3.53;;;;;;;;;;5053492;28;20071;-64
2023/05/16 10:32:55;;;;;;;4.57;3.80;;;;;;;;;;5053264;28;20036;-64
2023/05/16 10:35:26;;;;;;;5.03;3.90;;;;;;;;;;5053201;28;20098;-64
2023/05/16 10:37:52;;;;;;;3.97;3.55;;;;;;;;;;5053109;28;20048;-64
2023/05/16 10:40:17;;;;;;;3.80;3.00;;;;;;;;;;5053226;28;20024;-64
2023/05/16 10:42:56;;;;;;;4.65;3.47;;;;;;;;;;5053348;28;20025;-64
2023/05/16 10:45:22;;;;;;;4.28;3.50;;;;;;;;;;5035285;28;20063;-64
2023/05/16 10:47:55;;;;;;;3.97;2.83;;;;;;;;;;5035199;28;20048;-64
2023/05/16 10:50:33;;;;;;;3.30;3.00;;;;;;;;;;5053080;28;20047;-64
2023/05/16 10:53:17;;;;;;;3.45;3.15;;;;;;;;;;5053091;28;20033;-64
2023/05/16 10:55:48;;;;;;;4.97;3.10;;;;;;;;;;5053104;28;20025;-64
2023/05/16 10:58:17;;;;;;;3.00;2.80;;;;;;;;;;5053062;28;20029;-64
2023/05/16 11:00:43;;;;;;;7.35;3.95;;;;;;;;;;5053168;28;20029;-64
2023/05/16 11:03:22;;;;;;;4.05;3.17;;;;;;;;;;5035112;28;20439;-64
2023/05/16 11:05:51;;;;;;;3.22;2.90;;;;;;;;;;5035314;28;20054;-64
2023/05/16 11:08:16;;;;;;;2.80;2.60;;;;;;;;;;5055937;28;20040;-64
2023/05/16 11:10:41;;;;;;;7.93;3.30;;;;;;;;;;5038882;28;20036;-64
2023/05/16 11:13:07;;;;;;;3.90;3.63;;;;;;;;;;5056620;28;20130;-64
2023/05/16 11:15:33;;;;;;;3.20;3.00;;;;;;;;;;5056823;28;20041;-64
2023/05/16 11:18:05;;;;;;;3.10;2.80;;;;;;;;;;5056816;28;20384;-64
2023/05/16 11:20:32;;;;;;;5.10;3.50;;;;;;;;;;5056728;28;20033;-64
2023/05/16 11:23:26;;;;;;;5.60;2.72;;;;;;;;;;5056686;28;20082;-64
2023/05/16 11:25:55;;;;;;;7.68;3.10;;;;;;;;;;5047533;28;20127;-64
2023/05/16 11:28:22;;;;;;;4.30;2.90;;;;;;;;;;5038606;28;20040;-64
2023/05/16 11:30:49;;;;;;;3.45;2.90;;;;;;;;;;5056439;28;20466;-64
2023/05/16 11:33:15;;;;;;;4.65;2.85;;;;;;;;;;5038417;28;20033;-64
2023/05/16 11:35:42;;;;;;;2.88;2.60;;;;;;;;;;5056437;28;20025;-64
2023/05/16 11:38:15;;;;;;;4.47;2.97;;;;;;;;;;5021879;28;20472;-64
2023/05/16 11:40:43;;;;;;;2.72;2.53;;;;;;;;;;5056384;28;20033;-64
2023/05/16 11:43:09;;;;;;;3.30;3.00;;;;;;;;;;5056233;28;20100;-64
2023/05/16 11:45:34;;;;;;;8.15;3.20;;;;;;;;;;5056168;28;20516;-64
2023/05/16 11:48:03;;;;;;;2.38;2.28;;;;;;;;;;5056061;28;20028;-64
2023/05/16 11:50:29;;;;;;;3.40;2.70;;;;;;;;;;5056001;28;20047;-64
2023/05/16 11:52:56;;;;;;;2.60;2.50;;;;;;;;;;5055974;28;20493;-64
2023/05/16 11:55:26;;;;;;;2.60;2.17;;;;;;;;;;5055960;28;20082;-64
2023/05/16 11:57:52;;;;;;;3.95;3.58;;;;;;;;;;5056071;28;20135;-64
2023/05/16 12:00:23;;;;;;;2.50;2.40;;;;;;;;;;5055866;28;20029;-64
2023/05/16 12:02:49;;;;;;;2.58;2.38;;;;;;;;;;5056035;28;20052;-64
2023/05/16 12:05:15;;;;;;;2.85;2.40;;;;;;;;;;5055802;28;20523;-64
2023/05/16 12:07:44;;;;;;;4.13;2.78;;;;;;;;;;5055609;28;20033;-64
2023/05/16 12:10:11;;;;;;;2.90;2.70;;;;;;;;;;5055667;28;20037;-64
2023/05/16 12:12:38;;;;;;;2.70;2.13;;;;;;;;;;5055534;28;20399;-64
2023/05/16 12:15:05;;;;;;;7.25;2.80;;;;;;;;;;5055559;28;20029;-64
2023/05/16 12:17:31;;;;;;;3.25;2.60;;;;;;;;;;5055486;28;20021;-64
2023/05/16 12:19:56;;;;;;;2.95;2.65;;;;;;;;;;5054711;28;20032;-64
2023/05/16 12:22:24;;;;;;;6.45;5.72;;;;;;;;;;5055472;28;20016;-64
2023/05/16 12:24:50;;;;;;;3.00;2.63;;;;;;;;;;5037736;28;20087;-64
2023/05/16 12:27:26;;;;;;;3.33;3.00;;;;;;;;;;5055290;28;20025;-64
2023/05/16 12:29:51;;;;;;;3.13;2.92;;;;;;;;;;5037358;28;20388;-64
2023/05/16 12:32:17;;;;;;;3.25;3.00;;;;;;;;;;5055280;28;20112;-64
2023/05/16 12:34:47;;;;;;;3.40;3.10;;;;;;;;;;5037887;28;20040;-64
2023/05/16 12:37:13;;;;;;;4.35;3.33;;;;;;;;;;5037301;28;20035;-64
2023/05/16 12:42:14;;;;;;;3.22;2.92;;;;;;;;;;5108969;28;20048;-63
2023/05/16 12:44:45;;;;;;;3.25;2.95;;;;;;;;;;5115932;28;20020;-64
2023/05/16 12:47:12;;;;;;;3.58;2.88;;;;;;;;;;5097852;28;20032;-64
2023/05/16 12:49:50;;;;;;;3.15;2.92;;;;;;;;;;5115581;28;20020;-64
2023/05/16 12:52:19;;;;;;;5.38;3.72;;;;;;;;;;5115492;28;20462;-64
2023/05/16 12:54:45;;;;;;;3.00;2.70;;;;;;;;;;5115493;28;20035;-64
2023/05/16 12:57:10;;;;;;;3.72;2.90;;;;;;;;;;5115428;28;20270;-64
2023/05/16 12:59:36;;;;;;;3.20;2.90;;;;;;;;;;5115349;28;20042;-64
2023/05/16 13:02:02;;;;;;;3.00;2.80;;;;;;;;;;5115448;28;20034;-64
2023/05/16 13:04:28;;;;;;;3.25;2.95;;;;;;;;;;5115345;28;20111;-64
2023/05/16 13:06:53;;;;;;;3.70;3.42;;;;;;;;;;5115427;28;20047;-64
2023/05/16 13:09:18;;;;;;;25.65;17.75;;;;;;;;;;5096952;28;20042;-64
2023/05/16 13:11:44;;;;;;;7.47;6.72;;;;;;;;;;5115142;28;20023;-64
2023/05/16 13:14:09;;;;;;;4.70;4.30;;;;;;;;;;5115067;28;20453;-64
2023/05/16 13:16:34;;;;;;;21.10;5.35;;;;;;;;;;5096792;28;20051;-64
2023/05/16 13:19:00;;;;;;;5.35;4.32;;;;;;;;;;5114882;28;20028;-64
2023/05/16 13:21:26;;;;;;;10.43;3.65;;;;;;;;;;5096747;28;20120;-64
2023/05/16 13:23:52;;;;;;;6.18;5.57;;;;;;;;;;5114947;28;20020;-64
2023/05/16 13:26:17;;;;;;;5.60;3.10;;;;;;;;;;5114884;28;20073;-64
2023/05/16 13:28:43;;;;;;;3.92;2.80;;;;;;;;;;5114817;28;20394;-64
2023/05/16 13:31:08;;;;;;;3.60;3.30;;;;;;;;;;5114653;28;20118;-64
2023/05/16 13:33:35;;;;;;;3.20;3.00;;;;;;;;;;5096470;28;20034;-64
2023/05/16 13:36:01;;;;;;;5.28;2.95;;;;;;;;;;5112890;28;20024;-64
2023/05/16 13:38:26;;;;;;;4.30;4.00;;;;;;;;;;5113540;28;20026;-64
2023/05/16 13:40:52;;;;;;;3.50;3.30;;;;;;;;;;5095184;28;20399;-64
2023/05/16 13:43:17;;;;;;;3.65;3.20;;;;;;;;;;5113478;28;20077;-64
2023/05/16 13:45:43;;;;;;;5.43;3.63;;;;;;;;;;5113480;28;20055;-65
2023/05/16 13:48:08;;;;;;;3.92;3.60;;;;;;;;;;5113133;28;20032;-64
2023/05/16 13:50:33;;;;;;;3.92;3.63;;;;;;;;;;5113421;28;20104;-64
2023/05/16 13:52:59;;;;;;;5.68;4.13;;;;;;;;;;5122301;27;20031;-64
2023/05/16 13:55:24;;;;;;;3.88;3.58;;;;;;;;;;5106273;28;20057;-65
2023/05/16 13:57:50;;;;;;;5.63;4.22;;;;;;;;;;5113582;28;20053;-65
2023/05/16 14:00:15;;;;;;;3.60;3.30;;;;;;;;;;5095506;28;20027;-64
2023/05/16 14:02:41;;;;;;;4.55;3.80;;;;;;;;;;5113407;28;20459;-65
2023/05/16 14:05:07;;;;;;;18.92;10.77;;;;;;;;;;5113726;28;20099;-69
2023/05/16 14:07:32;;;;;;;7.28;5.47;;;;;;;;;;5095629;28;20059;-62
2023/05/16 14:09:59;;;;;;;6.95;5.57;;;;;;;;;;5114044;28;20118;-62
2023/05/16 14:12:24;;;;;;;4.72;4.32;;;;;;;;;;5113918;28;20054;-64
2023/05/16 14:14:50;;;;;;;4.40;3.70;;;;;;;;;;5112712;28;20467;-63
2023/05/16 14:17:17;;;;;;;6.30;4.28;;;;;;;;;;5113190;28;20012;-63
2023/05/16 14:19:42;;;;;;;3.65;3.40;;;;;;;;;;5113267;28;20067;-66
2023/05/16 14:22:08;;;;;;;4.97;4.50;;;;;;;;;;5113246;28;20039;-65
2023/05/16 14:24:33;;;;;;;4.90;4.20;;;;;;;;;;5113038;28;20024;-66
2023/05/16 14:26:59;;;;;;;4.35;4.10;;;;;;;;;;5095283;28;20019;-66
2023/05/16 14:29:25;;;;;;;4.70;3.65;;;;;;;;;;5095394;28;20464;-62
2023/05/16 14:31:50;;;;;;;4.05;3.75;;;;;;;;;;5113597;28;20055;-62
2023/05/16 14:34:16;;;;;;;4.22;3.78;;;;;;;;;;5095496;28;20390;-64
2023/05/16 14:36:41;;;;;;;3.80;3.53;;;;;;;;;;5113774;28;20030;-65
2023/05/16 14:39:20;;;;;;;3.75;3.45;;;;;;;;;;5113553;28;20032;-65
2023/05/16 14:41:46;;;;;;;4.05;3.63;;;;;;;;;;5095308;28;20035;-64
2023/05/16 14:44:23;;;;;;;4.43;3.40;;;;;;;;;;5117416;28;20340;-64